sensor_id;sensor_type;location;lat;lon;timestamp;P1;durP1;ratioP1;P2;durP2;ratioP2
27303;SDS011;14791;52.392;13.092;2022-12-20T00:01:34;6.73;;;6.23;;
27303;SDS011;14791;52.392;13.092;2022-12-20T00:04:03;7.90;;;7.20;;
27303;SDS011;14791;52.392;13.092;2022-12-20T00:06:33;6.63;;;6.23;;
27303;SDS011;14791;52.392;13.092;2022-12-20T00:09:05;6.93;;;6.50;;
27303;SDS011;14791;52.392;13.092;2022-12-20T00:11:35;8.07;;;7.33;;
27303;SDS011;14791;52.392;13.092;2022-12-20T00:14:07;7.47;;;6.87;;
27303;SDS011;14791;52.392;13.092;2022-12-20T00:16:37;8.40;;;7.60;;
27303;SDS011;14791;52.392;13.092;2022-12-20T00:19:06;7.63;;;7.13;;
27303;SDS011;14791;52.392;13.092;2022-12-20T00:21:37;7.13;;;6.63;;
27303;SDS011;14791;52.392;13.092;2022-12-20T00:24:06;7.50;;;6.90;;
27303;SDS011;14791;52.392;13.092;2022-12-20T00:26:35;6.57;;;6.17;;
27303;SDS011;14791;52.392;13.092;2022-12-20T00:29:04;7.17;;;6.77;;
27303;SDS011;14791;52.392;13.092;2022-12-20T00:31:33;6.87;;;6.40;;
27303;SDS011;14791;52.392;13.092;2022-12-20T00:34:02;7.10;;;6.60;;
27303;SDS011;14791;52.392;13.092;2022-12-20T00:36:32;7.33;;;6.73;;
27303;SDS011;14791;52.392;13.092;2022-12-20T00:39:01;7.13;;;6.57;;
27303;SDS011;14791;52.392;13.092;2022-12-20T00:41:31;7.50;;;6.90;;
27303;SDS011;14791;52.392;13.092;2022-12-20T00:44:01;6.87;;;6.47;;
27303;SDS011;14791;52.392;13.092;2022-12-20T00:46:30;7.23;;;6.63;;
27303;SDS011;14791;52.392;13.092;2022-12-20T00:49:00;7.10;;;6.50;;
27303;SDS011;14791;52.392;13.092;2022-12-20T00:51:29;6.30;;;5.90;;
27303;SDS011;14791;52.392;13.092;2022-12-20T00:53:58;7.07;;;6.57;;
27303;SDS011;14791;52.392;13.092;2022-12-20T00:56:27;6.20;;;5.80;;
27303;SDS011;14791;52.392;13.092;2022-12-20T00:58:57;6.07;;;5.67;;
27303;SDS011;14791;52.392;13.092;2022-12-20T01:01:30;6.43;;;6.03;;
27303;SDS011;14791;52.392;13.092;2022-12-20T01:04:01;7.00;;;6.50;;
27303;SDS011;14791;52.392;13.092;2022-12-20T01:06:31;6.33;;;5.90;;
27303;SDS011;14791;52.392;13.092;2022-12-20T01:09:00;5.93;;;5.60;;
27303;SDS011;14791;52.392;13.092;2022-12-20T01:11:30;7.00;;;6.53;;
27303;SDS011;14791;52.392;13.092;2022-12-20T01:14:02;6.70;;;6.30;;
27303;SDS011;14791;52.392;13.092;2022-12-20T01:16:36;6.43;;;6.03;;
27303;SDS011;14791;52.392;13.092;2022-12-20T01:19:08;6.47;;;6.07;;
27303;SDS011;14791;52.392;13.092;2022-12-20T01:21:39;7.30;;;6.80;;
27303;SDS011;14791;52.392;13.092;2022-12-20T01:24:11;7.63;;;7.03;;
27303;SDS011;14791;52.392;13.092;2022-12-20T01:26:41;7.17;;;6.67;;
27303;SDS011;14791;52.392;13.092;2022-12-20T01:29:10;6.63;;;6.13;;
27303;SDS011;14791;52.392;13.092;2022-12-20T01:31:40;6.13;;;5.73;;
27303;SDS011;14791;52.392;13.092;2022-12-20T01:34:09;6.53;;;6.13;;
27303;SDS011;14791;52.392;13.092;2022-12-20T01:36:38;6.10;;;5.70;;
27303;SDS011;14791;52.392;13.092;2022-12-20T01:39:14;6.03;;;5.63;;
27303;SDS011;14791;52.392;13.092;2022-12-20T01:41:41;6.27;;;5.80;;
27303;SDS011;14791;52.392;13.092;2022-12-20T01:46:49;6.47;;;5.97;;
27303;SDS011;14791;52.392;13.092;2022-12-20T01:49:20;6.33;;;5.90;;
27303;SDS011;14791;52.392;13.092;2022-12-20T01:54:32;6.70;;;6.30;;
27303;SDS011;14791;52.392;13.092;2022-12-20T01:57:04;7.00;;;6.57;;
27303;SDS011;14791;52.392;13.092;2022-12-20T01:59:35;6.90;;;6.40;;
27303;SDS011;14791;52.392;13.092;2022-12-20T02:02:08;6.13;;;5.83;;
27303;SDS011;14791;52.392;13.092;2022-12-20T02:04:39;6.33;;;5.83;;
27303;SDS011;14791;52.392;13.092;2022-12-20T02:07:09;6.13;;;5.67;;
27303;SDS011;14791;52.392;13.092;2022-12-20T02:09:40;7.03;;;6.53;;
27303;SDS011;14791;52.392;13.092;2022-12-20T02:12:09;7.17;;;6.70;;
27303;SDS011;14791;52.392;13.092;2022-12-20T02:14:48;6.93;;;6.47;;
27303;SDS011;14791;52.392;13.092;2022-12-20T02:31:33;6.17;;;5.87;;
27303;SDS011;14791;52.392;13.092;2022-12-20T02:34:03;6.50;;;6.13;;
27303;SDS011;14791;52.392;13.092;2022-12-20T02:36:34;6.63;;;6.23;;
27303;SDS011;14791;52.392;13.092;2022-12-20T02:39:04;6.30;;;5.90;;
27303;SDS011;14791;52.392;13.092;2022-12-20T02:41:37;5.53;;;5.13;;
27303;SDS011;14791;52.392;13.092;2022-12-20T02:44:09;5.70;;;5.40;;
27303;SDS011;14791;52.392;13.092;2022-12-20T02:46:59;5.90;;;5.60;;
27303;SDS011;14791;52.392;13.092;2022-12-20T02:49:31;6.60;;;6.27;;
27303;SDS011;14791;52.392;13.092;2022-12-20T02:52:05;6.00;;;5.67;;
27303;SDS011;14791;52.392;13.092;2022-12-20T02:54:36;6.40;;;6.10;;
27303;SDS011;14791;52.392;13.092;2022-12-20T02:57:21;7.40;;;6.87;;
27303;SDS011;14791;52.392;13.092;2022-12-20T03:00:02;6.63;;;6.13;;
27303;SDS011;14791;52.392;13.092;2022-12-20T03:02:34;6.37;;;5.83;;
27303;SDS011;14791;52.392;13.092;2022-12-20T03:05:23;6.40;;;6.00;;
27303;SDS011;14791;52.392;13.092;2022-12-20T03:07:54;6.50;;;5.97;;
27303;SDS011;14791;52.392;13.092;2022-12-20T03:10:24;5.80;;;5.50;;
27303;SDS011;14791;52.392;13.092;2022-12-20T03:12:53;6.23;;;5.83;;
27303;SDS011;14791;52.392;13.092;2022-12-20T03:15:22;6.07;;;5.67;;
27303;SDS011;14791;52.392;13.092;2022-12-20T03:17:53;5.77;;;5.53;;
27303;SDS011;14791;52.392;13.092;2022-12-20T03:20:22;6.33;;;5.93;;
27303;SDS011;14791;52.392;13.092;2022-12-20T03:22:51;6.27;;;5.93;;
27303;SDS011;14791;52.392;13.092;2022-12-20T03:25:20;5.70;;;5.30;;
27303;SDS011;14791;52.392;13.092;2022-12-20T03:27:49;5.33;;;5.07;;
27303;SDS011;14791;52.392;13.092;2022-12-20T03:30:19;6.60;;;6.10;;
27303;SDS011;14791;52.392;13.092;2022-12-20T03:32:48;4.77;;;4.57;;
27303;SDS011;14791;52.392;13.092;2022-12-20T03:35:17;5.63;;;5.23;;
27303;SDS011;14791;52.392;13.092;2022-12-20T03:37:46;6.63;;;6.23;;
27303;SDS011;14791;52.392;13.092;2022-12-20T03:40:15;6.97;;;6.47;;
27303;SDS011;14791;52.392;13.092;2022-12-20T03:42:44;6.27;;;5.87;;
27303;SDS011;14791;52.392;13.092;2022-12-20T03:45:13;7.07;;;6.57;;
27303;SDS011;14791;52.392;13.092;2022-12-20T03:47:42;6.17;;;5.77;;
27303;SDS011;14791;52.392;13.092;2022-12-20T03:50:12;7.17;;;6.67;;
27303;SDS011;14791;52.392;13.092;2022-12-20T03:52:42;7.30;;;6.73;;
27303;SDS011;14791;52.392;13.092;2022-12-20T03:55:11;6.30;;;6.00;;
27303;SDS011;14791;52.392;13.092;2022-12-20T03:57:41;6.13;;;5.73;;
27303;SDS011;14791;52.392;13.092;2022-12-20T04:00:18;6.73;;;6.33;;
27303;SDS011;14791;52.392;13.092;2022-12-20T04:02:50;6.00;;;5.70;;
27303;SDS011;14791;52.392;13.092;2022-12-20T04:05:19;6.13;;;5.63;;
27303;SDS011;14791;52.392;13.092;2022-12-20T04:07:50;6.47;;;5.97;;
27303;SDS011;14791;52.392;13.092;2022-12-20T04:10:19;6.37;;;6.07;;
27303;SDS011;14791;52.392;13.092;2022-12-20T04:12:48;5.57;;;5.27;;
27303;SDS011;14791;52.392;13.092;2022-12-20T04:15:17;5.93;;;5.63;;
27303;SDS011;14791;52.392;13.092;2022-12-20T04:17:47;6.30;;;5.90;;
27303;SDS011;14791;52.392;13.092;2022-12-20T04:20:16;5.67;;;5.37;;
27303;SDS011;14791;52.392;13.092;2022-12-20T04:22:47;5.57;;;5.27;;
27303;SDS011;14791;52.392;13.092;2022-12-20T04:25:18;6.43;;;6.00;;
27303;SDS011;14791;52.392;13.092;2022-12-20T04:27:48;6.37;;;5.97;;
27303;SDS011;14791;52.392;13.092;2022-12-20T04:30:17;5.23;;;5.03;;
27303;SDS011;14791;52.392;13.092;2022-12-20T04:32:46;6.23;;;5.93;;
27303;SDS011;14791;52.392;13.092;2022-12-20T04:35:16;6.40;;;6.03;;
27303;SDS011;14791;52.392;13.092;2022-12-20T04:37:45;5.70;;;5.40;;
27303;SDS011;14791;52.392;13.092;2022-12-20T04:40:14;5.30;;;5.00;;
27303;SDS011;14791;52.392;13.092;2022-12-20T04:42:48;5.47;;;5.13;;
27303;SDS011;14791;52.392;13.092;2022-12-20T04:45:17;5.97;;;5.63;;
27303;SDS011;14791;52.392;13.092;2022-12-20T04:47:46;5.70;;;5.40;;
27303;SDS011;14791;52.392;13.092;2022-12-20T04:50:17;6.20;;;5.80;;
27303;SDS011;14791;52.392;13.092;2022-12-20T04:52:46;5.53;;;5.23;;
27303;SDS011;14791;52.392;13.092;2022-12-20T04:55:37;5.83;;;5.43;;
27303;SDS011;14791;52.392;13.092;2022-12-20T04:58:06;6.57;;;6.17;;
27303;SDS011;14791;52.392;13.092;2022-12-20T05:00:37;4.50;;;4.30;;
27303;SDS011;14791;52.392;13.092;2022-12-20T05:03:08;4.67;;;4.47;;
27303;SDS011;14791;52.392;13.092;2022-12-20T05:05:36;5.57;;;5.27;;
27303;SDS011;14791;52.392;13.092;2022-12-20T05:08:05;4.80;;;4.57;;
27303;SDS011;14791;52.392;13.092;2022-12-20T05:10:36;4.77;;;4.47;;
27303;SDS011;14791;52.392;13.092;2022-12-20T05:13:05;5.87;;;5.47;;
27303;SDS011;14791;52.392;13.092;2022-12-20T05:15:36;4.80;;;4.60;;
27303;SDS011;14791;52.392;13.092;2022-12-20T05:18:05;4.57;;;4.37;;
27303;SDS011;14791;52.392;13.092;2022-12-20T05:20:36;4.73;;;4.53;;
27303;SDS011;14791;52.392;13.092;2022-12-20T05:23:05;5.57;;;5.27;;
27303;SDS011;14791;52.392;13.092;2022-12-20T05:25:54;6.23;;;5.83;;
27303;SDS011;14791;52.392;13.092;2022-12-20T05:28:41;6.30;;;5.90;;
27303;SDS011;14791;52.392;13.092;2022-12-20T05:31:11;6.43;;;6.03;;
27303;SDS011;14791;52.392;13.092;2022-12-20T05:33:40;6.60;;;6.00;;
27303;SDS011;14791;52.392;13.092;2022-12-20T05:36:09;6.37;;;5.97;;
27303;SDS011;14791;52.392;13.092;2022-12-20T05:38:38;6.60;;;6.20;;
27303;SDS011;14791;52.392;13.092;2022-12-20T05:41:09;6.87;;;6.37;;
27303;SDS011;14791;52.392;13.092;2022-12-20T05:43:38;5.60;;;5.30;;
27303;SDS011;14791;52.392;13.092;2022-12-20T05:46:07;5.57;;;5.27;;
27303;SDS011;14791;52.392;13.092;2022-12-20T05:48:38;6.13;;;5.73;;
27303;SDS011;14791;52.392;13.092;2022-12-20T05:51:08;5.03;;;4.73;;
27303;SDS011;14791;52.392;13.092;2022-12-20T05:53:38;5.70;;;5.40;;
27303;SDS011;14791;52.392;13.092;2022-12-20T05:56:07;5.80;;;5.50;;
27303;SDS011;14791;52.392;13.092;2022-12-20T05:58:37;5.93;;;5.53;;
27303;SDS011;14791;52.392;13.092;2022-12-20T06:01:06;5.93;;;5.63;;
27303;SDS011;14791;52.392;13.092;2022-12-20T06:03:37;4.97;;;4.77;;
27303;SDS011;14791;52.392;13.092;2022-12-20T06:06:08;7.07;;;6.53;;
27303;SDS011;14791;52.392;13.092;2022-12-20T06:08:37;6.03;;;5.63;;
27303;SDS011;14791;52.392;13.092;2022-12-20T06:11:08;5.83;;;5.43;;
27303;SDS011;14791;52.392;13.092;2022-12-20T06:13:39;5.47;;;5.17;;
27303;SDS011;14791;52.392;13.092;2022-12-20T06:16:08;4.87;;;4.63;;
27303;SDS011;14791;52.392;13.092;2022-12-20T06:18:38;6.03;;;5.63;;
27303;SDS011;14791;52.392;13.092;2022-12-20T06:21:07;5.83;;;5.53;;
27303;SDS011;14791;52.392;13.092;2022-12-20T06:23:36;6.70;;;6.20;;
27303;SDS011;14791;52.392;13.092;2022-12-20T06:26:07;6.17;;;5.70;;
27303;SDS011;14791;52.392;13.092;2022-12-20T06:28:37;6.83;;;6.40;;
27303;SDS011;14791;52.392;13.092;2022-12-20T06:31:09;5.30;;;5.00;;
27303;SDS011;14791;52.392;13.092;2022-12-20T06:33:40;5.60;;;5.30;;
27303;SDS011;14791;52.392;13.092;2022-12-20T06:36:09;6.77;;;6.17;;
27303;SDS011;14791;52.392;13.092;2022-12-20T06:38:39;7.80;;;7.20;;
27303;SDS011;14791;52.392;13.092;2022-12-20T06:41:08;5.80;;;5.50;;
27303;SDS011;14791;52.392;13.092;2022-12-20T06:43:38;6.53;;;6.03;;
27303;SDS011;14791;52.392;13.092;2022-12-20T06:46:08;6.50;;;6.10;;
27303;SDS011;14791;52.392;13.092;2022-12-20T06:48:37;6.50;;;6.10;;
27303;SDS011;14791;52.392;13.092;2022-12-20T06:51:07;6.90;;;6.50;;
27303;SDS011;14791;52.392;13.092;2022-12-20T06:53:37;6.97;;;6.47;;
27303;SDS011;14791;52.392;13.092;2022-12-20T06:56:06;6.17;;;5.77;;
27303;SDS011;14791;52.392;13.092;2022-12-20T06:58:35;6.23;;;5.83;;
27303;SDS011;14791;52.392;13.092;2022-12-20T07:01:04;6.03;;;5.63;;
27303;SDS011;14791;52.392;13.092;2022-12-20T07:03:33;5.53;;;5.23;;
27303;SDS011;14791;52.392;13.092;2022-12-20T07:06:02;6.10;;;5.70;;
27303;SDS011;14791;52.392;13.092;2022-12-20T07:08:31;5.23;;;4.93;;
27303;SDS011;14791;52.392;13.092;2022-12-20T07:11:04;6.50;;;6.03;;
27303;SDS011;14791;52.392;13.092;2022-12-20T07:13:34;7.10;;;6.60;;
27303;SDS011;14791;52.392;13.092;2022-12-20T07:16:03;6.27;;;5.90;;
27303;SDS011;14791;52.392;13.092;2022-12-20T07:18:33;6.27;;;5.87;;
27303;SDS011;14791;52.392;13.092;2022-12-20T07:21:02;6.60;;;6.20;;
27303;SDS011;14791;52.392;13.092;2022-12-20T07:23:32;5.17;;;4.87;;
27303;SDS011;14791;52.392;13.092;2022-12-20T07:26:01;6.33;;;5.93;;
27303;SDS011;14791;52.392;13.092;2022-12-20T07:28:30;6.33;;;5.93;;
27303;SDS011;14791;52.392;13.092;2022-12-20T07:31:00;5.63;;;5.20;;
27303;SDS011;14791;52.392;13.092;2022-12-20T07:33:30;6.37;;;5.90;;
27303;SDS011;14791;52.392;13.092;2022-12-20T07:36:03;6.43;;;6.10;;
27303;SDS011;14791;52.392;13.092;2022-12-20T07:38:34;6.60;;;6.30;;
27303;SDS011;14791;52.392;13.092;2022-12-20T07:41:09;7.20;;;5.97;;
27303;SDS011;14791;52.392;13.092;2022-12-20T07:43:41;5.50;;;5.20;;
27303;SDS011;14791;52.392;13.092;2022-12-20T07:46:11;8.47;;;7.83;;
27303;SDS011;14791;52.392;13.092;2022-12-20T07:48:41;7.47;;;6.97;;
27303;SDS011;14791;52.392;13.092;2022-12-20T07:51:13;7.20;;;6.70;;
27303;SDS011;14791;52.392;13.092;2022-12-20T07:53:47;6.73;;;6.23;;
27303;SDS011;14791;52.392;13.092;2022-12-20T07:56:15;7.03;;;6.53;;
27303;SDS011;14791;52.392;13.092;2022-12-20T07:58:46;6.40;;;6.00;;
27303;SDS011;14791;52.392;13.092;2022-12-20T08:01:19;6.70;;;6.30;;
27303;SDS011;14791;52.392;13.092;2022-12-20T08:03:49;7.27;;;6.77;;
27303;SDS011;14791;52.392;13.092;2022-12-20T08:06:20;7.57;;;7.03;;
27303;SDS011;14791;52.392;13.092;2022-12-20T08:08:50;7.60;;;7.10;;
27303;SDS011;14791;52.392;13.092;2022-12-20T08:11:21;6.73;;;6.30;;
27303;SDS011;14791;52.392;13.092;2022-12-20T08:13:51;6.17;;;5.77;;
27303;SDS011;14791;52.392;13.092;2022-12-20T08:16:20;6.03;;;5.63;;
27303;SDS011;14791;52.392;13.092;2022-12-20T08:18:49;6.20;;;5.90;;
27303;SDS011;14791;52.392;13.092;2022-12-20T08:21:18;7.00;;;6.50;;
27303;SDS011;14791;52.392;13.092;2022-12-20T08:23:48;5.77;;;5.37;;
27303;SDS011;14791;52.392;13.092;2022-12-20T08:26:17;4.87;;;4.57;;
27303;SDS011;14791;52.392;13.092;2022-12-20T08:28:46;6.43;;;6.03;;
27303;SDS011;14791;52.392;13.092;2022-12-20T08:31:15;6.50;;;6.00;;
27303;SDS011;14791;52.392;13.092;2022-12-20T08:33:44;7.40;;;7.00;;
27303;SDS011;14791;52.392;13.092;2022-12-20T08:36:13;6.07;;;5.73;;
27303;SDS011;14791;52.392;13.092;2022-12-20T08:38:42;5.83;;;5.50;;
27303;SDS011;14791;52.392;13.092;2022-12-20T08:41:14;5.90;;;5.60;;
27303;SDS011;14791;52.392;13.092;2022-12-20T08:43:42;5.57;;;5.27;;
27303;SDS011;14791;52.392;13.092;2022-12-20T08:46:11;6.70;;;6.17;;
27303;SDS011;14791;52.392;13.092;2022-12-20T08:48:40;5.93;;;5.57;;
27303;SDS011;14791;52.392;13.092;2022-12-20T08:51:09;6.07;;;5.67;;
27303;SDS011;14791;52.392;13.092;2022-12-20T08:53:39;6.30;;;6.00;;
27303;SDS011;14791;52.392;13.092;2022-12-20T08:56:09;6.53;;;6.13;;
27303;SDS011;14791;52.392;13.092;2022-12-20T08:58:40;7.57;;;6.97;;
27303;SDS011;14791;52.392;13.092;2022-12-20T09:01:11;6.23;;;5.93;;
27303;SDS011;14791;52.392;13.092;2022-12-20T09:03:42;7.10;;;6.60;;
27303;SDS011;14791;52.392;13.092;2022-12-20T09:06:14;6.80;;;6.30;;
27303;SDS011;14791;52.392;13.092;2022-12-20T09:08:44;5.53;;;5.33;;
27303;SDS011;14791;52.392;13.092;2022-12-20T09:11:18;7.97;;;7.47;;
27303;SDS011;14791;52.392;13.092;2022-12-20T09:13:50;9.17;;;8.30;;
27303;SDS011;14791;52.392;13.092;2022-12-20T09:16:22;7.17;;;6.67;;
27303;SDS011;14791;52.392;13.092;2022-12-20T09:18:56;6.83;;;6.30;;
27303;SDS011;14791;52.392;13.092;2022-12-20T09:21:26;5.63;;;5.33;;
27303;SDS011;14791;52.392;13.092;2022-12-20T09:23:56;6.53;;;6.03;;
27303;SDS011;14791;52.392;13.092;2022-12-20T09:26:25;6.97;;;6.57;;
27303;SDS011;14791;52.392;13.092;2022-12-20T09:28:54;7.10;;;6.60;;
27303;SDS011;14791;52.392;13.092;2022-12-20T09:31:24;6.23;;;5.83;;
27303;SDS011;14791;52.392;13.092;2022-12-20T09:34:00;6.33;;;5.93;;
27303;SDS011;14791;52.392;13.092;2022-12-20T09:36:25;6.70;;;6.37;;
27303;SDS011;14791;52.392;13.092;2022-12-20T09:38:55;6.97;;;6.60;;
27303;SDS011;14791;52.392;13.092;2022-12-20T09:41:26;7.40;;;7.00;;
27303;SDS011;14791;52.392;13.092;2022-12-20T09:44:04;6.60;;;6.30;;
27303;SDS011;14791;52.392;13.092;2022-12-20T09:46:46;6.73;;;6.40;;
27303;SDS011;14791;52.392;13.092;2022-12-20T09:49:16;7.67;;;6.77;;
27303;SDS011;14791;52.392;13.092;2022-12-20T09:55:27;6.10;;;5.80;;
27303;SDS011;14791;52.392;13.092;2022-12-20T10:00:20;6.53;;;6.03;;
27303;SDS011;14791;52.392;13.092;2022-12-20T10:02:49;6.00;;;5.70;;
27303;SDS011;14791;52.392;13.092;2022-12-20T10:06:04;5.93;;;5.63;;
27303;SDS011;14791;52.392;13.092;2022-12-20T10:10:58;7.70;;;7.10;;
27303;SDS011;14791;52.392;13.092;2022-12-20T10:19:05;4.73;;;4.43;;
27303;SDS011;14791;52.392;13.092;2022-12-20T10:21:47;5.13;;;4.83;;
27303;SDS011;14791;52.392;13.092;2022-12-20T10:24:31;6.37;;;6.03;;
27303;SDS011;14791;52.392;13.092;2022-12-20T10:27:24;5.60;;;5.30;;
27303;SDS011;14791;52.392;13.092;2022-12-20T10:29:36;5.43;;;5.20;;
27303;SDS011;14791;52.392;13.092;2022-12-20T10:32:09;4.70;;;4.50;;
27303;SDS011;14791;52.392;13.092;2022-12-20T10:34:51;5.53;;;5.23;;
27303;SDS011;14791;52.392;13.092;2022-12-20T10:37:18;4.80;;;4.60;;
27303;SDS011;14791;52.392;13.092;2022-12-20T10:39:47;5.50;;;5.20;;
27303;SDS011;14791;52.392;13.092;2022-12-20T10:42:22;5.43;;;5.03;;
27303;SDS011;14791;52.392;13.092;2022-12-20T10:44:53;5.83;;;5.53;;
27303;SDS011;14791;52.392;13.092;2022-12-20T10:47:24;5.03;;;4.83;;
27303;SDS011;14791;52.392;13.092;2022-12-20T10:50:07;5.87;;;5.57;;
27303;SDS011;14791;52.392;13.092;2022-12-20T10:52:38;6.00;;;5.70;;
27303;SDS011;14791;52.392;13.092;2022-12-20T10:56:04;5.97;;;5.67;;
27303;SDS011;14791;52.392;13.092;2022-12-20T10:57:55;6.10;;;5.80;;
27303;SDS011;14791;52.392;13.092;2022-12-20T11:00:32;6.67;;;6.17;;
27303;SDS011;14791;52.392;13.092;2022-12-20T11:03:01;5.53;;;5.33;;
27303;SDS011;14791;52.392;13.092;2022-12-20T11:06:00;5.60;;;5.30;;
27303;SDS011;14791;52.392;13.092;2022-12-20T11:08:30;6.60;;;6.10;;
27303;SDS011;14791;52.392;13.092;2022-12-20T11:11:21;5.97;;;5.67;;
27303;SDS011;14791;52.392;13.092;2022-12-20T11:13:42;4.83;;;4.57;;
27303;SDS011;14791;52.392;13.092;2022-12-20T11:24:41;5.30;;;4.90;;
27303;SDS011;14791;52.392;13.092;2022-12-20T11:30:29;5.00;;;4.80;;
27303;SDS011;14791;52.392;13.092;2022-12-20T11:33:01;5.00;;;4.70;;
27303;SDS011;14791;52.392;13.092;2022-12-20T11:38:24;5.90;;;5.60;;
27303;SDS011;14791;52.392;13.092;2022-12-20T11:46:36;4.60;;;4.40;;
27303;SDS011;14791;52.392;13.092;2022-12-20T11:49:32;4.87;;;4.67;;
27303;SDS011;14791;52.392;13.092;2022-12-20T11:52:08;5.30;;;5.00;;
27303;SDS011;14791;52.392;13.092;2022-12-20T11:54:44;4.90;;;4.70;;
27303;SDS011;14791;52.392;13.092;2022-12-20T11:57:28;4.80;;;4.53;;
27303;SDS011;14791;52.392;13.092;2022-12-20T12:00:00;4.97;;;4.50;;
27303;SDS011;14791;52.392;13.092;2022-12-20T12:02:38;5.00;;;4.80;;
27303;SDS011;14791;52.392;13.092;2022-12-20T12:05:18;5.23;;;4.93;;
27303;SDS011;14791;52.392;13.092;2022-12-20T12:07:59;4.70;;;4.50;;
27303;SDS011;14791;52.392;13.092;2022-12-20T12:10:32;5.03;;;4.73;;
27303;SDS011;14791;52.392;13.092;2022-12-20T12:13:14;5.17;;;4.87;;
27303;SDS011;14791;52.392;13.092;2022-12-20T12:18:39;5.43;;;5.13;;
27303;SDS011;14791;52.392;13.092;2022-12-20T12:23:49;4.37;;;4.17;;
27303;SDS011;14791;52.392;13.092;2022-12-20T12:26:36;4.50;;;4.30;;
27303;SDS011;14791;52.392;13.092;2022-12-20T12:29:13;5.23;;;4.93;;
27303;SDS011;14791;52.392;13.092;2022-12-20T12:37:38;4.43;;;4.03;;
27303;SDS011;14791;52.392;13.092;2022-12-20T12:46:02;5.57;;;5.27;;
27303;SDS011;14791;52.392;13.092;2022-12-20T12:51:08;5.80;;;5.60;;
27303;SDS011;14791;52.392;13.092;2022-12-20T12:53:42;6.17;;;5.77;;
27303;SDS011;14791;52.392;13.092;2022-12-20T13:01:51;5.37;;;5.03;;
27303;SDS011;14791;52.392;13.092;2022-12-20T13:04:23;4.83;;;4.63;;
27303;SDS011;14791;52.392;13.092;2022-12-20T13:06:59;5.37;;;5.07;;
27303;SDS011;14791;52.392;13.092;2022-12-20T13:12:45;6.00;;;5.70;;
27303;SDS011;14791;52.392;13.092;2022-12-20T13:19:50;5.60;;;5.40;;
27303;SDS011;14791;52.392;13.092;2022-12-20T13:22:20;6.57;;;6.13;;
27303;SDS011;14791;52.392;13.092;2022-12-20T13:24:55;4.93;;;4.73;;
27303;SDS011;14791;52.392;13.092;2022-12-20T13:27:36;5.87;;;5.57;;
27303;SDS011;14791;52.392;13.092;2022-12-20T13:40:43;6.70;;;6.10;;
27303;SDS011;14791;52.392;13.092;2022-12-20T13:43:16;5.77;;;5.47;;
27303;SDS011;14791;52.392;13.092;2022-12-20T13:45:53;4.67;;;4.47;;
27303;SDS011;14791;52.392;13.092;2022-12-20T13:48:27;5.43;;;5.03;;
27303;SDS011;14791;52.392;13.092;2022-12-20T13:50:59;5.17;;;4.97;;
27303;SDS011;14791;52.392;13.092;2022-12-20T13:53:29;4.77;;;4.57;;
27303;SDS011;14791;52.392;13.092;2022-12-20T13:55:59;5.80;;;5.47;;
27303;SDS011;14791;52.392;13.092;2022-12-20T13:58:48;5.90;;;5.50;;
27303;SDS011;14791;52.392;13.092;2022-12-20T14:01:17;8.67;;;7.87;;
27303;SDS011;14791;52.392;13.092;2022-12-20T14:03:48;7.43;;;6.83;;
27303;SDS011;14791;52.392;13.092;2022-12-20T14:06:19;5.10;;;4.80;;
27303;SDS011;14791;52.392;13.092;2022-12-20T14:08:51;5.77;;;5.37;;
27303;SDS011;14791;52.392;13.092;2022-12-20T14:11:21;4.50;;;4.20;;
27303;SDS011;14791;52.392;13.092;2022-12-20T14:14:00;5.63;;;5.43;;
27303;SDS011;14791;52.392;13.092;2022-12-20T14:16:31;5.50;;;5.10;;
27303;SDS011;14791;52.392;13.092;2022-12-20T14:19:01;5.93;;;5.57;;
27303;SDS011;14791;52.392;13.092;2022-12-20T14:21:37;4.80;;;4.60;;
27303;SDS011;14791;52.392;13.092;2022-12-20T14:24:03;5.90;;;5.50;;
27303;SDS011;14791;52.392;13.092;2022-12-20T14:26:35;6.23;;;5.73;;
27303;SDS011;14791;52.392;13.092;2022-12-20T14:29:09;6.83;;;6.40;;
27303;SDS011;14791;52.392;13.092;2022-12-20T14:31:40;5.83;;;5.53;;
27303;SDS011;14791;52.392;13.092;2022-12-20T14:36:43;4.57;;;4.37;;
27303;SDS011;14791;52.392;13.092;2022-12-20T14:41:56;5.97;;;5.67;;
27303;SDS011;14791;52.392;13.092;2022-12-20T14:44:30;6.67;;;6.27;;
27303;SDS011;14791;52.392;13.092;2022-12-20T14:47:02;6.30;;;5.90;;
27303;SDS011;14791;52.392;13.092;2022-12-20T14:49:47;5.33;;;5.00;;
27303;SDS011;14791;52.392;13.092;2022-12-20T14:52:27;6.17;;;5.77;;
27303;SDS011;14791;52.392;13.092;2022-12-20T15:02:50;5.83;;;5.47;;
27303;SDS011;14791;52.392;13.092;2022-12-20T15:10:49;6.70;;;6.30;;
27303;SDS011;14791;52.392;13.092;2022-12-20T15:13:21;6.60;;;6.20;;
27303;SDS011;14791;52.392;13.092;2022-12-20T15:15:52;6.30;;;5.80;;
27303;SDS011;14791;52.392;13.092;2022-12-20T15:18:21;6.97;;;6.37;;
27303;SDS011;14791;52.392;13.092;2022-12-20T15:20:57;6.87;;;6.47;;
27303;SDS011;14791;52.392;13.092;2022-12-20T15:23:28;7.50;;;6.80;;
27303;SDS011;14791;52.392;13.092;2022-12-20T15:25:58;6.73;;;6.33;;
27303;SDS011;14791;52.392;13.092;2022-12-20T15:28:27;8.10;;;7.50;;
27303;SDS011;14791;52.392;13.092;2022-12-20T15:30:56;7.87;;;7.37;;
27303;SDS011;14791;52.392;13.092;2022-12-20T15:33:25;8.33;;;7.73;;
27303;SDS011;14791;52.392;13.092;2022-12-20T15:35:56;9.10;;;8.33;;
27303;SDS011;14791;52.392;13.092;2022-12-20T15:38:25;7.53;;;7.03;;
27303;SDS011;14791;52.392;13.092;2022-12-20T15:40:55;8.03;;;7.53;;
27303;SDS011;14791;52.392;13.092;2022-12-20T15:43:29;7.87;;;7.30;;
27303;SDS011;14791;52.392;13.092;2022-12-20T15:46:01;7.23;;;6.73;;
27303;SDS011;14791;52.392;13.092;2022-12-20T15:48:30;5.60;;;5.30;;
27303;SDS011;14791;52.392;13.092;2022-12-20T15:50:59;5.27;;;4.97;;
27303;SDS011;14791;52.392;13.092;2022-12-20T15:53:31;7.40;;;6.80;;
27303;SDS011;14791;52.392;13.092;2022-12-20T15:56:01;8.10;;;7.53;;
27303;SDS011;14791;52.392;13.092;2022-12-20T15:58:30;9.10;;;8.40;;
27303;SDS011;14791;52.392;13.092;2022-12-20T16:00:59;7.57;;;6.97;;
27303;SDS011;14791;52.392;13.092;2022-12-20T16:03:29;6.80;;;6.37;;
27303;SDS011;14791;52.392;13.092;2022-12-20T16:05:59;7.10;;;6.70;;
27303;SDS011;14791;52.392;13.092;2022-12-20T16:08:28;8.20;;;7.60;;
27303;SDS011;14791;52.392;13.092;2022-12-20T16:10:57;8.17;;;7.67;;
27303;SDS011;14791;52.392;13.092;2022-12-20T16:13:26;8.90;;;8.20;;
27303;SDS011;14791;52.392;13.092;2022-12-20T16:15:55;8.67;;;8.07;;
27303;SDS011;14791;52.392;13.092;2022-12-20T16:18:26;8.77;;;7.97;;
27303;SDS011;14791;52.392;13.092;2022-12-20T16:20:55;8.63;;;7.93;;
27303;SDS011;14791;52.392;13.092;2022-12-20T16:23:23;7.67;;;7.17;;
27303;SDS011;14791;52.392;13.092;2022-12-20T16:25:54;7.50;;;7.00;;
27303;SDS011;14791;52.392;13.092;2022-12-20T16:28:23;8.97;;;8.27;;
27303;SDS011;14791;52.392;13.092;2022-12-20T16:30:52;9.67;;;8.87;;
27303;SDS011;14791;52.392;13.092;2022-12-20T16:33:21;8.80;;;8.10;;
27303;SDS011;14791;52.392;13.092;2022-12-20T16:35:50;8.83;;;8.20;;
27303;SDS011;14791;52.392;13.092;2022-12-20T16:38:18;9.03;;;8.33;;
27303;SDS011;14791;52.392;13.092;2022-12-20T16:40:47;8.00;;;7.50;;
27303;SDS011;14791;52.392;13.092;2022-12-20T16:43:16;9.47;;;8.67;;
27303;SDS011;14791;52.392;13.092;2022-12-20T16:45:45;10.63;;;9.73;;
27303;SDS011;14791;52.392;13.092;2022-12-20T16:48:14;9.83;;;9.03;;
27303;SDS011;14791;52.392;13.092;2022-12-20T16:50:43;10.37;;;9.43;;
27303;SDS011;14791;52.392;13.092;2022-12-20T16:53:12;10.50;;;9.50;;
27303;SDS011;14791;52.392;13.092;2022-12-20T16:55:41;9.60;;;8.87;;